createdAt,value
2023-04-10T00:00:13.319Z,15.88
2023-04-10T00:05:15.300Z,18.25
2023-04-10T00:10:17.081Z,19.17
2023-04-10T00:15:18.903Z,18.15
2023-04-10T00:20:22.730Z,17.05
2023-04-10T00:25:24.433Z,16.98
2023-04-10T00:30:26.252Z,17.13
2023-04-10T00:35:28.136Z,16.65
2023-04-10T00:40:30.473Z,15.75
2023-04-10T00:45:32.402Z,15.55
2023-04-10T00:50:34.079Z,13.65
2023-04-10T00:55:35.874Z,15.63
2023-04-10T01:00:37.532Z,15.73
2023-04-10T01:05:50.215Z,14.80
2023-04-10T01:11:10.022Z,15.60
2023-04-10T01:16:18.783Z,15.68
2023-04-10T01:21:22.631Z,20.27
2023-04-10T01:27:02.981Z,20.00
2023-04-10T01:32:12.921Z,17.63
2023-04-10T01:37:26.099Z,17.35
2023-04-10T01:42:31.912Z,17.10
2023-04-10T01:47:34.506Z,16.98
2023-04-10T01:52:36.761Z,16.42
2023-04-10T01:57:49.085Z,15.63
2023-04-10T02:02:51.929Z,16.08
2023-04-10T02:08:10.976Z,15.68
2023-04-10T02:13:16.207Z,16.10
2023-04-10T02:18:19.728Z,15.48
2023-04-10T02:23:22.741Z,17.75
2023-04-10T02:28:24.423Z,17.98
2023-04-10T02:33:26.046Z,17.13
2023-04-10T02:38:27.846Z,16.08
2023-04-10T02:43:30.138Z,16.77
2023-04-10T02:48:33.193Z,14.43
2023-04-10T02:53:37.685Z,15.10
2023-04-10T02:58:40.094Z,16.10
2023-04-10T03:03:42.362Z,14.20
2023-04-10T03:08:44.740Z,14.52
2023-04-10T03:13:47.427Z,15.15
2023-04-10T03:18:49.322Z,17.00
2023-04-10T03:23:51.441Z,16.20
2023-04-10T03:28:53.219Z,15.57
2023-04-10T03:33:55.247Z,15.45
2023-04-10T03:38:57.179Z,15.65
2023-04-10T03:43:58.875Z,14.95
2023-04-10T03:49:00.768Z,17.30
2023-04-10T03:54:04.856Z,16.58
2023-04-10T03:59:06.519Z,36.65
2023-04-10T04:04:14.361Z,24.90
2023-04-10T04:09:25.377Z,19.17
2023-04-10T04:14:49.665Z,17.80
2023-04-10T04:20:14.197Z,16.95
2023-04-10T04:25:19.826Z,17.98
2023-04-10T04:35:43.478Z,17.48
2023-04-10T04:41:05.460Z,18.55
2023-04-10T04:46:30.305Z,15.73
2023-04-10T04:51:54.690Z,17.20
2023-04-10T04:57:19.770Z,17.85
2023-04-10T05:02:39.819Z,18.23
2023-04-10T05:08:01.558Z,17.17
2023-04-10T05:13:26.521Z,15.52
2023-04-10T05:18:49.947Z,16.58
2023-04-10T05:24:10.490Z,16.00
2023-04-10T05:29:24.864Z,18.23
2023-04-10T05:34:44.448Z,17.02
2023-04-10T05:40:05.499Z,21.50
2023-04-10T05:45:24.919Z,19.30
2023-04-10T05:50:46.881Z,19.42
2023-04-10T05:56:21.169Z,18.83
2023-04-10T06:01:41.758Z,18.40
2023-04-10T06:06:43.979Z,19.02
2023-04-10T06:11:45.852Z,17.23
2023-04-10T06:16:50.276Z,18.83
2023-04-10T06:21:53.937Z,19.13
2023-04-10T06:26:57.091Z,19.38
2023-04-10T06:31:59.529Z,20.85
2023-04-10T06:37:02.744Z,19.30
2023-04-10T06:42:04.848Z,20.70
2023-04-10T06:47:29.883Z,22.40
2023-04-10T06:52:32.494Z,22.08
2023-04-10T06:57:34.274Z,22.73
2023-04-10T07:02:35.917Z,23.92
2023-04-10T07:07:37.588Z,23.90
2023-04-10T07:12:39.214Z,24.23
2023-04-10T07:17:41.046Z,25.30
2023-04-10T07:22:42.680Z,25.70
2023-04-10T07:27:44.284Z,24.75
2023-04-10T07:32:46.692Z,27.52
2023-04-10T07:37:51.972Z,27.55
2023-04-10T07:42:53.948Z,27.98
2023-04-10T07:47:55.980Z,28.85
2023-04-10T07:52:57.668Z,27.20
2023-04-10T07:57:59.289Z,29.52
2023-04-10T08:03:01.696Z,29.70
2023-04-10T08:08:03.653Z,30.67
2023-04-10T08:13:06.147Z,30.95
2023-04-10T08:18:07.768Z,30.67
2023-04-10T08:28:13.964Z,32.28
2023-04-10T08:33:15.847Z,30.48
2023-04-10T08:38:17.476Z,31.33
2023-04-10T08:43:19.194Z,31.55
2023-04-10T08:48:22.031Z,31.25
2023-04-10T08:53:26.273Z,30.73
2023-04-10T08:58:28.411Z,33.40
2023-04-10T09:03:30.880Z,30.73
2023-04-10T09:08:32.997Z,31.08
2023-04-10T09:13:39.472Z,30.92
2023-04-10T09:18:49.420Z,31.23
2023-04-10T09:24:01.046Z,34.17
2023-04-10T09:29:07.819Z,29.05
2023-04-10T09:34:15.319Z,33.40
2023-04-10T09:39:17.163Z,26.30
2023-04-10T09:44:33.242Z,26.90
2023-04-10T09:49:48.756Z,25.95
2023-04-10T09:54:50.432Z,25.65
2023-04-10T09:59:54.328Z,27.70
2023-04-10T10:04:57.790Z,25.90
2023-04-10T10:10:02.784Z,27.70
2023-04-10T10:15:10.442Z,26.20
2023-04-10T10:20:13.604Z,25.15
2023-04-10T10:25:16.482Z,26.40
2023-04-10T10:30:29.277Z,26.30
2023-04-10T10:35:32.197Z,26.48
2023-04-10T10:40:57.929Z,26.52
2023-04-10T10:46:07.317Z,26.15
2023-04-10T10:51:08.994Z,26.13
2023-04-10T10:56:34.884Z,25.95
2023-04-10T11:01:36.683Z,24.92
2023-04-10T11:06:52.146Z,25.48
2023-04-10T11:11:59.054Z,22.63
2023-04-10T11:17:01.031Z,25.00
2023-04-10T11:22:05.785Z,25.27
2023-04-10T11:27:07.773Z,24.00
2023-04-10T11:32:10.200Z,22.30
2023-04-10T11:37:23.487Z,22.00
2023-04-10T11:42:25.267Z,24.15
2023-04-10T11:47:26.902Z,22.15
2023-04-10T11:52:28.585Z,22.90
2023-04-10T11:57:35.395Z,23.48
2023-04-10T12:02:51.596Z,21.92
2023-04-10T12:07:54.275Z,21.33
2023-04-10T12:12:56.101Z,19.73
2023-04-10T12:17:58.834Z,20.55
2023-04-10T12:23:03.116Z,23.77
2023-04-10T12:28:04.807Z,21.73
2023-04-10T12:33:07.626Z,19.83
2023-04-10T12:38:09.543Z,19.17
2023-04-10T12:43:11.269Z,18.38
2023-04-10T12:48:12.864Z,20.90
2023-04-10T12:53:15.189Z,17.23
2023-04-10T12:58:18.582Z,18.63
2023-04-10T13:03:20.647Z,17.83
2023-04-10T13:08:22.984Z,16.98
2023-04-10T13:13:24.615Z,17.30
2023-04-10T13:18:26.587Z,16.95
2023-04-10T13:23:28.198Z,16.70
2023-04-10T13:28:30.019Z,17.02
2023-04-10T13:33:31.697Z,17.42
2023-04-10T13:38:33.981Z,16.95
2023-04-10T13:43:36.886Z,16.13
2023-04-10T13:48:41.359Z,17.60
2023-04-10T13:53:43.086Z,18.60
2023-04-10T13:58:46.220Z,20.35
2023-04-10T14:03:48.260Z,15.13
2023-04-10T14:08:50.084Z,14.70
2023-04-10T14:13:51.715Z,13.30
2023-04-10T14:18:54.169Z,12.27
2023-04-10T14:23:55.995Z,14.25
2023-04-10T14:28:57.634Z,11.88
2023-04-10T14:33:59.277Z,13.07
2023-04-10T14:39:00.900Z,15.18
2023-04-10T14:44:03.082Z,14.95
2023-04-10T14:49:04.790Z,15.68
2023-04-10T14:54:07.789Z,14.73
2023-04-10T14:59:09.447Z,14.45
2023-04-10T15:04:12.119Z,12.88
2023-04-10T15:09:14.432Z,10.55
2023-04-10T15:14:16.099Z,14.85
2023-04-10T15:19:17.694Z,15.10
2023-04-10T15:24:19.282Z,12.77
2023-04-10T15:29:20.898Z,12.32
2023-04-10T15:34:22.544Z,10.68
2023-04-10T15:39:24.204Z,12.07
2023-04-10T15:44:28.826Z,13.32
2023-04-10T15:49:37.799Z,13.48
2023-04-10T15:54:40.418Z,13.02
2023-04-10T15:59:42.055Z,13.38
2023-04-10T16:04:44.000Z,13.85
2023-04-10T16:09:46.230Z,13.70
2023-04-10T16:14:47.886Z,14.63
2023-04-10T16:19:49.528Z,12.02
2023-04-10T16:24:55.670Z,12.50
2023-04-10T16:29:57.452Z,13.05
2023-04-10T16:34:59.152Z,12.73
2023-04-10T16:40:02.022Z,14.05
2023-04-10T16:45:03.917Z,13.40
2023-04-10T16:50:06.814Z,14.13
2023-04-10T16:55:08.535Z,14.90
2023-04-10T17:00:11.532Z,19.35
2023-04-10T17:05:13.697Z,15.23
2023-04-10T17:10:15.449Z,14.13
2023-04-10T17:15:17.194Z,20.10
2023-04-10T17:20:18.968Z,23.05
2023-04-10T17:25:20.927Z,18.50
2023-04-10T17:30:22.848Z,16.92
2023-04-10T17:35:25.419Z,18.40
2023-04-10T17:40:27.162Z,20.85
2023-04-10T17:45:28.896Z,22.83
2023-04-10T17:50:30.816Z,30.40
2023-04-10T17:55:37.529Z,33.42
2023-04-10T18:00:43.317Z,21.70
2023-04-10T18:05:44.984Z,18.02
2023-04-10T18:10:46.652Z,20.67
2023-04-10T18:15:48.485Z,17.45
2023-04-10T18:20:50.283Z,15.65
2023-04-10T18:25:53.652Z,17.77
2023-04-10T18:30:56.746Z,18.42
2023-04-10T18:35:59.132Z,19.40
2023-04-10T18:41:01.222Z,20.20
2023-04-10T18:46:03.215Z,19.10
2023-04-10T18:51:04.957Z,26.45
2023-04-10T18:56:06.849Z,51.08
2023-04-10T19:01:10.606Z,60.20
2023-04-10T19:06:12.385Z,32.95
2023-04-10T19:11:13.969Z,23.75
2023-04-10T19:16:19.241Z,21.55
2023-04-10T19:21:21.179Z,24.55
2023-04-10T19:26:23.094Z,29.92
2023-04-10T19:31:27.587Z,28.15
2023-04-10T19:36:29.302Z,24.73
2023-04-10T19:41:31.101Z,18.23
2023-04-10T19:46:32.771Z,18.70
2023-04-10T19:51:34.528Z,19.75
2023-04-10T19:56:37.806Z,18.67
2023-04-10T20:01:39.737Z,19.95
2023-04-10T20:06:43.066Z,19.63
2023-04-10T20:11:44.749Z,18.38
2023-04-10T20:16:46.544Z,18.52
2023-04-10T20:21:48.194Z,18.58
2023-04-10T20:26:50.009Z,18.55
2023-04-10T20:31:51.682Z,18.10
2023-04-10T20:36:53.376Z,16.60
2023-04-10T20:41:54.963Z,15.18
2023-04-10T20:46:56.618Z,18.02
2023-04-10T20:51:58.242Z,15.73
2023-04-10T20:57:01.679Z,14.45
2023-04-10T21:02:03.670Z,15.05
2023-04-10T21:07:05.339Z,16.17
2023-04-10T21:12:06.973Z,14.75
2023-04-10T21:17:08.787Z,16.80
2023-04-10T21:22:10.811Z,16.67
2023-04-10T21:27:12.422Z,15.48
2023-04-10T21:32:14.162Z,16.52
2023-04-10T21:37:15.954Z,14.45
2023-04-10T21:42:19.281Z,15.00
2023-04-10T21:47:20.896Z,17.73
2023-04-10T21:52:22.602Z,17.73
2023-04-10T21:57:24.238Z,20.30
2023-04-10T22:02:26.011Z,20.40
2023-04-10T22:07:27.769Z,21.80
2023-04-10T22:12:29.363Z,21.00
2023-04-10T22:17:30.967Z,21.35
2023-04-10T22:22:32.736Z,22.35
2023-04-10T22:27:34.422Z,22.90
2023-04-10T22:32:36.221Z,22.83
2023-04-10T22:37:37.894Z,22.70
2023-04-10T22:42:39.478Z,24.33
2023-04-10T22:47:41.318Z,22.20
2023-04-10T22:52:42.964Z,21.90
2023-04-10T22:57:49.374Z,21.80
2023-04-10T23:02:51.178Z,21.35
2023-04-10T23:07:52.896Z,22.75
2023-04-10T23:12:54.528Z,22.25
2023-04-10T23:17:56.354Z,21.40
2023-04-10T23:22:58.032Z,23.45
2023-04-10T23:27:59.963Z,21.25
2023-04-10T23:33:01.910Z,19.58
2023-04-10T23:38:03.692Z,17.90
2023-04-10T23:43:05.436Z,22.38
2023-04-10T23:48:08.865Z,21.77
2023-04-10T23:53:11.165Z,20.98
2023-04-10T23:58:13.826Z,19.67
